Norfolk, Virginia
Traffic Map
Current Weather Conditions
Norfolk, Virginia
Clear
Clear
39°
Feels Like: 34°
Wind Chill: 34° Ceiling: Unl
Heat Index: 39° Visibility: 10mi
Dew Point: 29° Wind: 7mph
Humidity: 67% Direction: 200° (SSW)
Pressure: 30.29in Gusts: 0mph
Raw Report DataKORF 020351Z AUTO 20006KT 10SM CLR 04/M02 A3029 RMK AO2 SLP256 T00391017 TSNO
Traffic Incident Summary
Active as of:
Severity:
Category:
InformationThere was an issue retrieving the traffic information for this location. Please try a different location or try again shortly.
Advertisements
Track Severe Weather on mobile